createdAt,value
2022-11-01T00:00:08.910Z,86.60
2022-11-01T00:00:18.953Z,91.10
2022-11-01T00:00:28.902Z,97.60
2022-11-01T00:00:38.922Z,101.70
2022-11-01T00:00:48.911Z,98.40
2022-11-01T00:00:58.908Z,100.90
2022-11-01T00:01:08.929Z,100.10
2022-11-01T00:01:18.956Z,97.20
2022-11-01T00:01:29.053Z,93.80
2022-11-01T00:01:38.988Z,96.20
2022-11-01T00:01:49.068Z,102.70
2022-11-01T00:01:58.972Z,94.00
2022-11-01T00:02:08.934Z,88.20
2022-11-01T00:02:18.924Z,77.70
2022-11-01T00:02:28.951Z,87.60
2022-11-01T00:02:38.954Z,89.10
2022-11-01T00:02:48.893Z,101.30
2022-11-01T00:02:58.890Z,97.40
2022-11-01T00:03:09.783Z,91.10
2022-11-01T00:03:18.886Z,91.60
2022-11-01T00:03:29.708Z,91.30
2022-11-01T00:03:38.890Z,97.90
2022-11-01T00:03:49.856Z,96.20
2022-11-01T00:03:58.963Z,94.00
2022-11-01T00:04:08.914Z,90.20
2022-11-01T00:04:18.876Z,85.90
2022-11-01T00:04:28.898Z,86.30
2022-11-01T00:04:38.880Z,89.50
2022-11-01T00:04:48.900Z,90.90
2022-11-01T00:04:58.900Z,85.40
2022-11-01T00:05:08.891Z,89.40
2022-11-01T00:05:18.878Z,84.40
2022-11-01T00:05:28.958Z,87.10
2022-11-01T00:05:38.956Z,82.60
2022-11-01T00:05:48.887Z,87.40
2022-11-01T00:05:58.870Z,90.90
2022-11-01T00:06:08.874Z,82.40
2022-11-01T00:06:18.894Z,86.70
2022-11-01T00:06:28.913Z,88.00
2022-11-01T00:06:38.953Z,97.80
2022-11-01T00:06:48.893Z,92.20
2022-11-01T00:06:58.931Z,87.30
2022-11-01T00:07:08.883Z,84.20
2022-11-01T00:07:19.805Z,82.10
2022-11-01T00:07:28.868Z,83.50
2022-11-01T00:07:39.701Z,85.50
2022-11-01T00:07:48.892Z,89.40
2022-11-01T00:07:59.071Z,86.80
2022-11-01T00:08:08.879Z,86.90
2022-11-01T00:08:18.937Z,84.20
2022-11-01T00:08:28.862Z,94.80
2022-11-01T00:08:38.875Z,91.70
2022-11-01T00:08:48.878Z,89.70
2022-11-01T00:08:58.857Z,90.00
2022-11-01T00:09:08.884Z,96.70
2022-11-01T00:09:18.866Z,101.70
2022-11-01T00:09:28.868Z,93.20
2022-11-01T00:09:38.927Z,87.50
2022-11-01T00:09:48.855Z,82.50
2022-11-01T00:09:58.872Z,80.10
2022-11-01T00:10:08.944Z,80.60
2022-11-01T00:10:18.889Z,87.90
2022-11-01T00:10:28.861Z,92.00
2022-11-01T00:10:38.873Z,91.00
2022-11-01T00:10:48.920Z,89.40
2022-11-01T00:10:58.853Z,89.90
2022-11-01T00:11:08.888Z,92.00
2022-11-01T00:11:18.867Z,90.10
2022-11-01T00:11:28.856Z,87.40
2022-11-01T00:11:38.897Z,86.30
2022-11-01T00:11:48.872Z,88.80
2022-11-01T00:11:58.864Z,86.90
2022-11-01T00:12:08.905Z,92.30
2022-11-01T00:12:18.848Z,87.70
2022-11-01T00:12:28.864Z,93.90
2022-11-01T00:12:38.883Z,88.90
2022-11-01T00:12:48.857Z,87.60
2022-11-01T00:13:00.020Z,83.30
2022-11-01T00:13:09.720Z,88.20
2022-11-01T00:13:18.856Z,90.70
2022-11-01T00:13:28.860Z,97.30
2022-11-01T00:13:38.849Z,97.50
2022-11-01T00:13:48.850Z,99.00
2022-11-01T00:13:58.976Z,96.80
2022-11-01T00:14:08.867Z,86.60
2022-11-01T00:14:19.715Z,86.20
2022-11-01T00:14:28.868Z,90.30
2022-11-01T00:14:38.922Z,99.90
2022-11-01T00:14:48.843Z,98.60
2022-11-01T00:14:58.848Z,89.30
2022-11-01T00:15:09.008Z,81.20
2022-11-01T00:15:18.840Z,80.10
2022-11-01T00:15:28.881Z,85.50
2022-11-01T00:15:38.834Z,90.80
2022-11-01T00:15:48.838Z,95.60
2022-11-01T00:15:58.876Z,95.00
2022-11-01T00:16:08.842Z,97.20
2022-11-01T00:16:18.843Z,94.60
2022-11-01T00:16:28.839Z,91.40
2022-11-01T00:16:38.920Z,87.40
2022-11-01T00:16:48.861Z,93.90
2022-11-01T00:16:59.715Z,106.30
2022-11-01T00:17:08.833Z,105.10
2022-11-01T00:17:18.986Z,97.00
2022-11-01T00:17:28.846Z,90.80
2022-11-01T00:17:38.831Z,91.10
2022-11-01T00:17:48.856Z,94.80
2022-11-01T00:17:58.875Z,92.60
2022-11-01T00:18:08.831Z,96.70
2022-11-01T00:18:18.822Z,93.90
2022-11-01T00:18:28.816Z,94.20
2022-11-01T00:18:38.824Z,85.90
2022-11-01T00:18:48.893Z,89.30
2022-11-01T00:18:58.826Z,90.00
2022-11-01T00:19:08.830Z,94.30
2022-11-01T00:19:18.830Z,95.40
2022-11-01T00:19:28.818Z,89.70
2022-11-01T00:19:38.863Z,87.00
2022-11-01T00:19:48.815Z,90.40
2022-11-01T00:19:58.820Z,106.60
2022-11-01T00:20:08.893Z,106.20
2022-11-01T00:20:18.821Z,97.30
2022-11-01T00:20:28.847Z,84.30
2022-11-01T00:20:38.821Z,87.70
2022-11-01T00:20:48.811Z,90.30
2022-11-01T00:20:58.826Z,88.70
2022-11-01T00:21:08.823Z,90.40
2022-11-01T00:21:18.803Z,92.50
2022-11-01T00:21:28.820Z,102.30
2022-11-01T00:21:38.802Z,107.00
2022-11-01T00:21:48.805Z,102.60
2022-11-01T00:21:58.815Z,95.40
2022-11-01T00:22:09.718Z,89.30
2022-11-01T00:22:18.809Z,88.90
2022-11-01T00:22:29.256Z,84.20
2022-11-01T00:22:38.808Z,86.20
2022-11-01T00:22:48.810Z,89.00
2022-11-01T00:22:59.112Z,96.60
2022-11-01T00:23:08.798Z,95.50
2022-11-01T00:23:18.799Z,98.70
2022-11-01T00:23:28.831Z,96.80
2022-11-01T00:23:38.796Z,92.10
2022-11-01T00:23:48.815Z,87.60
2022-11-01T00:23:58.811Z,84.40
2022-11-01T00:24:08.802Z,88.30
2022-11-01T00:24:18.853Z,89.40
2022-11-01T00:24:28.788Z,90.10
2022-11-01T00:24:38.798Z,89.20
2022-11-01T00:24:48.806Z,87.70
2022-11-01T00:24:58.874Z,87.70
2022-11-01T00:25:08.794Z,86.90
2022-11-01T00:25:18.799Z,93.20
2022-11-01T00:25:28.821Z,93.80
2022-11-01T00:25:38.793Z,93.80
2022-11-01T00:25:49.746Z,88.40
2022-11-01T00:25:58.788Z,86.20
2022-11-01T00:26:08.783Z,90.90
2022-11-01T00:26:18.826Z,90.70
2022-11-01T00:26:28.803Z,91.60
2022-11-01T00:26:38.867Z,86.50
2022-11-01T00:26:58.793Z,89.00
2022-11-01T00:27:08.802Z,91.00
2022-11-01T00:27:18.779Z,92.00
2022-11-01T00:27:29.708Z,94.30
2022-11-01T00:27:38.837Z,99.10
2022-11-01T00:27:48.776Z,100.90
2022-11-01T00:27:58.979Z,97.50
2022-11-01T00:28:08.784Z,89.80
2022-11-01T00:28:18.779Z,89.50
2022-11-01T00:28:28.866Z,94.20
2022-11-01T00:28:38.796Z,100.10
2022-11-01T00:28:48.770Z,98.40
2022-11-01T00:28:58.774Z,90.40
2022-11-01T00:29:08.797Z,94.80
2022-11-01T00:29:18.776Z,95.30
2022-11-01T00:29:28.799Z,97.90
2022-11-01T00:29:38.785Z,93.80
2022-11-01T00:29:48.768Z,97.80
2022-11-01T00:29:58.774Z,96.20
2022-11-01T00:30:08.763Z,93.30
2022-11-01T00:30:18.765Z,86.60
2022-11-01T00:30:29.960Z,94.70
2022-11-01T00:30:38.766Z,100.40
2022-11-01T00:30:48.776Z,119.60
2022-11-01T00:30:58.769Z,112.10
2022-11-01T00:31:11.734Z,104.90
2022-11-01T00:31:19.715Z,87.20
2022-11-01T00:31:28.777Z,85.40
2022-11-01T00:31:38.777Z,87.60
2022-11-01T00:31:49.724Z,85.20
2022-11-01T00:31:58.784Z,92.70
2022-11-01T00:32:08.753Z,105.60
2022-11-01T00:32:18.758Z,109.70
2022-11-01T00:32:28.777Z,108.20
2022-11-01T00:32:38.823Z,97.10
2022-11-01T00:32:48.819Z,94.60
2022-11-01T00:32:58.756Z,97.30
2022-11-01T00:33:08.751Z,93.00
2022-11-01T00:33:18.758Z,95.10
2022-11-01T00:33:28.748Z,93.10
2022-11-01T00:33:38.767Z,100.70
2022-11-01T00:33:48.764Z,106.30
2022-11-01T00:33:58.750Z,105.80
2022-11-01T00:34:08.760Z,105.20
2022-11-01T00:34:18.774Z,94.80
2022-11-01T00:34:28.790Z,92.90
2022-11-01T00:34:39.830Z,92.50
2022-11-01T00:34:48.886Z,96.60
2022-11-01T00:34:58.756Z,97.50
2022-11-01T00:35:08.744Z,94.20
2022-11-01T00:35:18.882Z,91.50
2022-11-01T00:35:28.745Z,90.90
2022-11-01T00:35:38.752Z,94.70
2022-11-01T00:35:48.753Z,105.90
2022-11-01T00:35:58.750Z,103.80
2022-11-01T00:36:08.744Z,96.30
2022-11-01T00:36:18.754Z,85.20
2022-11-01T00:36:28.737Z,86.50
2022-11-01T00:36:41.873Z,90.20
2022-11-01T00:36:48.741Z,91.20
2022-11-01T00:36:58.743Z,88.70
2022-11-01T00:37:08.751Z,92.70
2022-11-01T00:37:18.743Z,97.10
2022-11-01T00:37:28.740Z,100.80
2022-11-01T00:37:38.749Z,86.20
2022-11-01T00:37:48.732Z,88.10
2022-11-01T00:37:59.167Z,86.10
2022-11-01T00:38:08.736Z,99.10
2022-11-01T00:38:18.730Z,93.70
2022-11-01T00:38:28.728Z,101.80
2022-11-01T00:38:38.817Z,99.00
2022-11-01T00:38:48.758Z,105.40
2022-11-01T00:38:58.737Z,98.10
2022-11-01T00:39:08.752Z,94.80
2022-11-01T00:39:18.726Z,91.80
2022-11-01T00:39:30.524Z,92.70
2022-11-01T00:39:38.728Z,93.50
2022-11-01T00:39:48.723Z,93.60
2022-11-01T00:39:58.748Z,111.50
2022-11-01T00:40:08.745Z,110.70
2022-11-01T00:40:18.745Z,112.00
2022-11-01T00:40:28.737Z,95.70
2022-11-01T00:40:38.734Z,97.90
2022-11-01T00:40:48.722Z,94.10
2022-11-01T00:40:58.818Z,94.40
2022-11-01T00:41:08.729Z,100.40
2022-11-01T00:41:18.725Z,99.30
2022-11-01T00:41:28.755Z,98.50
2022-11-01T00:41:38.734Z,104.90
2022-11-01T00:41:48.797Z,110.70
2022-11-01T00:41:58.742Z,105.50
2022-11-01T00:42:08.714Z,93.20
2022-11-01T00:42:18.720Z,84.40
2022-11-01T00:42:28.778Z,90.40
2022-11-01T00:42:38.724Z,89.80
2022-11-01T00:42:48.718Z,99.60
2022-11-01T00:42:58.746Z,95.10
2022-11-01T00:43:08.924Z,93.20
2022-11-01T00:43:28.743Z,88.90
2022-11-01T00:43:38.732Z,93.40
2022-11-01T00:43:48.844Z,95.70
2022-11-01T00:43:59.280Z,97.30
2022-11-01T00:44:08.706Z,95.70
2022-11-01T00:44:18.729Z,93.20
2022-11-01T00:44:28.707Z,94.10
2022-11-01T00:44:38.719Z,91.80
2022-11-01T00:44:48.727Z,97.50
2022-11-01T00:44:58.732Z,96.40
2022-11-01T00:45:08.705Z,95.00
2022-11-01T00:45:18.700Z,88.60
2022-11-01T00:45:28.703Z,85.40
2022-11-01T00:45:38.712Z,86.60
2022-11-01T00:45:48.701Z,89.70
2022-11-01T00:45:58.728Z,88.20
2022-11-01T00:46:08.712Z,88.60
2022-11-01T00:46:18.704Z,83.60
2022-11-01T00:46:28.693Z,90.90
2022-11-01T00:46:38.711Z,90.20
2022-11-01T00:46:48.708Z,90.60
2022-11-01T00:46:58.700Z,86.20
2022-11-01T00:47:09.341Z,76.30
2022-11-01T00:47:18.698Z,80.10
2022-11-01T00:47:28.696Z,81.00
2022-11-01T00:47:38.714Z,95.20
2022-11-01T00:47:48.694Z,97.00
2022-11-01T00:47:59.663Z,100.20
2022-11-01T00:48:08.716Z,95.50
2022-11-01T00:48:18.747Z,91.80
2022-11-01T00:48:28.700Z,95.50
2022-11-01T00:48:38.702Z,96.30
2022-11-01T00:48:48.686Z,101.10
2022-11-01T00:48:59.227Z,91.50
2022-11-01T00:49:09.244Z,84.20
2022-11-01T00:49:18.685Z,82.60
2022-11-01T00:49:28.693Z,85.90
2022-11-01T00:49:38.705Z,89.10
2022-11-01T00:49:48.679Z,90.90
2022-11-01T00:49:58.760Z,91.90
2022-11-01T00:50:08.683Z,100.40
2022-11-01T00:50:18.680Z,96.00
2022-11-01T00:50:29.221Z,95.20
2022-11-01T00:50:38.687Z,88.50
2022-11-01T00:50:48.674Z,90.50
2022-11-01T00:50:58.714Z,88.60
2022-11-01T00:51:08.689Z,86.20
2022-11-01T00:51:19.227Z,87.80
2022-11-01T00:51:28.670Z,90.90
2022-11-01T00:51:38.676Z,92.80
2022-11-01T00:51:48.680Z,92.60
2022-11-01T00:51:58.674Z,90.30
2022-11-01T00:52:08.677Z,87.60
2022-11-01T00:52:18.680Z,87.60
2022-11-01T00:52:28.679Z,96.10
2022-11-01T00:52:38.682Z,94.10
2022-11-01T00:52:48.681Z,92.00
2022-11-01T00:52:58.669Z,80.60
2022-11-01T00:53:08.682Z,85.50
2022-11-01T00:53:18.705Z,80.90
2022-11-01T00:53:31.838Z,80.10
2022-11-01T00:53:38.671Z,79.00
2022-11-01T00:53:48.664Z,82.40
2022-11-01T00:53:58.663Z,85.90
2022-11-01T00:54:08.668Z,89.90
2022-11-01T00:54:18.670Z,85.50
2022-11-01T00:54:28.667Z,85.50
2022-11-01T00:54:38.786Z,74.20
2022-11-01T00:54:48.698Z,79.20
2022-11-01T00:54:58.668Z,87.80
2022-11-01T00:55:08.672Z,97.70
2022-11-01T00:55:18.661Z,100.60
2022-11-01T00:55:28.729Z,91.60
2022-11-01T00:55:38.664Z,88.00
2022-11-01T00:55:48.677Z,86.60
2022-11-01T00:55:58.660Z,89.40
2022-11-01T00:56:08.785Z,88.70
2022-11-01T00:56:18.666Z,85.90
2022-11-01T00:56:28.656Z,82.90
2022-11-01T00:56:38.674Z,87.90
2022-11-01T00:56:48.692Z,89.60
2022-11-01T00:56:58.668Z,91.30
2022-11-01T00:57:08.756Z,80.30
2022-11-01T00:57:19.234Z,84.20
2022-11-01T00:57:29.233Z,88.10
2022-11-01T00:57:38.746Z,89.90
2022-11-01T00:57:48.652Z,83.10
2022-11-01T00:57:58.930Z,81.20
2022-11-01T00:58:08.661Z,85.50
2022-11-01T00:58:18.645Z,88.10
2022-11-01T00:58:28.650Z,77.70
2022-11-01T00:58:38.816Z,76.60
2022-11-01T00:58:48.646Z,75.20
2022-11-01T00:58:58.736Z,74.90
2022-11-01T00:59:08.644Z,77.00
2022-11-01T00:59:18.644Z,82.10
2022-11-01T00:59:28.641Z,92.50
2022-11-01T00:59:41.012Z,100.00
2022-11-01T00:59:48.683Z,93.10
2022-11-01T00:59:58.665Z,89.00
2022-11-01T01:00:08.638Z,80.70
2022-11-01T01:00:18.651Z,83.50
2022-11-01T01:00:28.649Z,78.80
2022-11-01T01:00:38.637Z,77.00
2022-11-01T01:00:48.676Z,74.30
2022-11-01T01:00:58.741Z,80.20
2022-11-01T01:01:08.762Z,81.80
2022-11-01T01:01:18.765Z,81.90
2022-11-01T01:01:28.824Z,75.70
2022-11-01T01:01:39.370Z,75.50
2022-11-01T01:01:48.972Z,72.10
2022-11-01T01:01:58.794Z,64.30
2022-11-01T01:02:08.779Z,67.00
2022-11-01T01:02:18.736Z,70.10
2022-11-01T01:02:28.737Z,70.40
2022-11-01T01:02:38.693Z,66.50
2022-11-01T01:02:48.630Z,72.20
2022-11-01T01:02:58.817Z,80.30
2022-11-01T01:03:08.678Z,81.50
2022-11-01T01:03:18.632Z,74.70
2022-11-01T01:03:28.624Z,82.40
2022-11-01T01:03:38.659Z,84.00
2022-11-01T01:03:48.787Z,85.60
2022-11-01T01:03:58.626Z,81.50
2022-11-01T01:04:09.230Z,79.60
2022-11-01T01:04:18.641Z,81.10
2022-11-01T01:04:29.223Z,75.30
2022-11-01T01:04:38.631Z,69.50
2022-11-01T01:04:48.640Z,72.80
2022-11-01T01:04:58.643Z,72.30
2022-11-01T01:05:08.613Z,77.90
2022-11-01T01:05:19.221Z,72.80
2022-11-01T01:05:28.617Z,85.00
2022-11-01T01:05:38.625Z,81.40
2022-11-01T01:05:49.225Z,79.50
2022-11-01T01:05:58.613Z,77.80
2022-11-01T01:06:08.714Z,88.00
2022-11-01T01:06:18.614Z,82.70
2022-11-01T01:06:28.610Z,78.80
2022-11-01T01:06:38.663Z,71.40
2022-11-01T01:06:48.626Z,75.10
2022-11-01T01:06:58.625Z,69.50
2022-11-01T01:07:08.622Z,76.00
2022-11-01T01:07:18.608Z,71.90
2022-11-01T01:07:28.659Z,79.10
2022-11-01T01:07:38.621Z,76.70
2022-11-01T01:07:48.630Z,83.40
2022-11-01T01:07:58.717Z,76.40
2022-11-01T01:08:08.606Z,67.60
2022-11-01T01:08:18.605Z,55.70
2022-11-01T01:08:28.626Z,57.50
2022-11-01T01:08:38.604Z,58.20
2022-11-01T01:08:48.636Z,70.80
2022-11-01T01:08:58.645Z,69.30
2022-11-01T01:09:08.602Z,74.80
2022-11-01T01:09:18.599Z,65.80
2022-11-01T01:09:28.638Z,65.70
2022-11-01T01:09:38.605Z,64.70
2022-11-01T01:09:48.612Z,73.70
2022-11-01T01:09:58.738Z,69.80
2022-11-01T01:10:08.722Z,59.20
2022-11-01T01:10:18.604Z,50.70
2022-11-01T01:10:28.613Z,54.60
2022-11-01T01:10:38.589Z,64.20
2022-11-01T01:10:48.672Z,71.40
2022-11-01T01:10:58.591Z,69.80
2022-11-01T01:11:08.622Z,72.40
2022-11-01T01:11:18.585Z,70.50
2022-11-01T01:11:28.619Z,69.40
2022-11-01T01:11:38.592Z,64.80
2022-11-01T01:11:48.599Z,62.90
2022-11-01T01:11:58.747Z,61.00
2022-11-01T01:12:08.691Z,62.00
2022-11-01T01:12:18.597Z,60.00
2022-11-01T01:12:28.590Z,67.20
2022-11-01T01:12:38.586Z,73.30
2022-11-01T01:12:48.590Z,76.40
2022-11-01T01:12:58.879Z,78.20
2022-11-01T01:13:08.591Z,66.50
2022-11-01T01:13:18.679Z,56.90
2022-11-01T01:13:28.600Z,55.10
2022-11-01T01:13:38.591Z,57.40
2022-11-01T01:13:48.580Z,66.40
2022-11-01T01:13:58.717Z,63.80
2022-11-01T01:14:10.240Z,62.90
2022-11-01T01:14:19.232Z,64.20
2022-11-01T01:14:32.226Z,62.50
2022-11-01T01:14:38.573Z,70.10
2022-11-01T01:14:48.579Z,69.90
2022-11-01T01:14:58.570Z,72.60
2022-11-01T01:15:08.714Z,72.50
2022-11-01T01:15:18.576Z,78.90
2022-11-01T01:15:28.578Z,73.80
2022-11-01T01:15:38.579Z,67.80
2022-11-01T01:15:48.571Z,64.30
2022-11-01T01:15:58.580Z,66.80
2022-11-01T01:16:09.232Z,56.00
2022-11-01T01:16:18.759Z,48.10
2022-11-01T01:16:28.627Z,47.20
2022-11-01T01:16:38.673Z,63.50
2022-11-01T01:16:48.577Z,65.40
2022-11-01T01:16:58.571Z,67.90
2022-11-01T01:17:08.573Z,56.00
2022-11-01T01:17:18.579Z,61.00
2022-11-01T01:17:31.247Z,63.50
2022-11-01T01:17:38.561Z,59.00
2022-11-01T01:17:48.569Z,56.20
2022-11-01T01:17:58.865Z,51.20
2022-11-01T01:18:08.663Z,63.70
2022-11-01T01:18:18.611Z,60.20
2022-11-01T01:18:28.563Z,63.20
2022-11-01T01:18:38.554Z,54.30
2022-11-01T01:18:48.566Z,62.90
2022-11-01T01:18:58.559Z,57.60
2022-11-01T01:19:08.559Z,64.80
2022-11-01T01:19:18.636Z,66.60
2022-11-01T01:19:28.562Z,66.70
2022-11-01T01:19:38.574Z,66.20
2022-11-01T01:19:48.575Z,58.70
2022-11-01T01:19:58.550Z,64.60
2022-11-01T01:20:08.573Z,60.60
2022-11-01T01:20:19.232Z,59.30
2022-11-01T01:20:28.553Z,61.30
2022-11-01T01:20:38.558Z,60.00
2022-11-01T01:20:48.567Z,67.20
2022-11-01T01:20:58.545Z,66.60
2022-11-01T01:21:11.250Z,74.00
2022-11-01T01:21:18.550Z,67.20
2022-11-01T01:21:28.611Z,63.90
2022-11-01T01:21:38.554Z,58.10
2022-11-01T01:21:48.551Z,59.20
2022-11-01T01:21:58.546Z,63.40
2022-11-01T01:22:08.551Z,66.40
2022-11-01T01:22:19.310Z,57.80
2022-11-01T01:22:29.234Z,48.70
2022-11-01T01:22:38.575Z,54.30
2022-11-01T01:22:48.547Z,67.90
2022-11-01T01:22:58.542Z,66.10
2022-11-01T01:23:08.550Z,61.90
2022-11-01T01:23:18.787Z,52.70
2022-11-01T01:23:28.558Z,58.70
2022-11-01T01:23:38.566Z,61.80
2022-11-01T01:23:48.540Z,57.30
2022-11-01T01:23:58.535Z,51.90
2022-11-01T01:24:08.563Z,53.00
2022-11-01T01:24:18.540Z,58.00
2022-11-01T01:24:28.786Z,60.70
2022-11-01T01:24:38.698Z,60.00
2022-11-01T01:24:48.549Z,61.90
2022-11-01T01:24:58.541Z,63.70
2022-11-01T01:25:08.540Z,56.20
2022-11-01T01:25:18.550Z,52.70
2022-11-01T01:25:28.542Z,52.30
2022-11-01T01:25:38.540Z,56.20
2022-11-01T01:25:48.662Z,57.00
2022-11-01T01:25:58.535Z,62.00
2022-11-01T01:26:08.545Z,54.30
2022-11-01T01:26:18.526Z,61.70
2022-11-01T01:26:29.229Z,54.40
2022-11-01T01:26:38.626Z,66.20
2022-11-01T01:26:48.535Z,65.50
2022-11-01T01:26:58.533Z,67.10
2022-11-01T01:27:08.543Z,61.50
2022-11-01T01:27:18.552Z,49.70
2022-11-01T01:27:28.570Z,56.00
2022-11-01T01:27:38.523Z,56.60
2022-11-01T01:27:48.532Z,64.50
2022-11-01T01:27:59.487Z,65.50
2022-11-01T01:28:08.519Z,72.00
2022-11-01T01:28:18.529Z,78.60
2022-11-01T01:28:28.522Z,79.40
2022-11-01T01:28:43.509Z,65.00
2022-11-01T01:28:48.539Z,57.70
2022-11-01T01:28:58.524Z,48.50
2022-11-01T01:29:09.235Z,49.50
2022-11-01T01:29:18.525Z,49.80
2022-11-01T01:29:28.527Z,41.70
2022-11-01T01:29:38.799Z,46.60
2022-11-01T01:29:48.519Z,41.00
2022-11-01T01:29:58.514Z,56.50
2022-11-01T01:30:08.510Z,57.70
2022-11-01T01:30:18.544Z,70.10
2022-11-01T01:30:28.542Z,61.20
2022-11-01T01:30:38.548Z,63.90
2022-11-01T01:30:48.616Z,65.20
2022-11-01T01:30:58.507Z,64.80
2022-11-01T01:31:08.515Z,64.40
2022-11-01T01:31:18.509Z,57.80
2022-11-01T01:31:29.232Z,66.70
2022-11-01T01:31:38.521Z,64.00
2022-11-01T01:31:48.511Z,68.50
2022-11-01T01:31:58.512Z,61.50
2022-11-01T01:32:08.520Z,57.30
2022-11-01T01:32:18.579Z,58.30
2022-11-01T01:32:28.592Z,60.80
2022-11-01T01:32:38.522Z,57.50
2022-11-01T01:32:49.245Z,54.70
2022-11-01T01:32:58.548Z,51.80
2022-11-01T01:33:08.526Z,56.00
2022-11-01T01:33:19.306Z,51.60
2022-11-01T01:33:28.499Z,51.40
2022-11-01T01:33:38.551Z,54.60
2022-11-01T01:33:48.497Z,49.60
2022-11-01T01:33:58.506Z,48.30
2022-11-01T01:34:08.498Z,53.70
2022-11-01T01:34:18.493Z,58.30
2022-11-01T01:34:28.634Z,59.90
2022-11-01T01:34:38.512Z,52.30
2022-11-01T01:34:48.810Z,59.40
2022-11-01T01:34:58.697Z,67.30
2022-11-01T01:35:08.510Z,68.20
2022-11-01T01:35:18.499Z,65.40
2022-11-01T01:35:28.521Z,63.40
2022-11-01T01:35:38.487Z,68.10
2022-11-01T01:35:48.496Z,61.00
2022-11-01T01:35:58.493Z,53.40
2022-11-01T01:36:08.489Z,40.00
2022-11-01T01:36:18.490Z,39.30
2022-11-01T01:36:28.495Z,38.10
2022-11-01T01:36:38.487Z,42.70
2022-11-01T01:36:48.498Z,51.50
2022-11-01T01:36:59.246Z,58.10
2022-11-01T01:37:08.479Z,51.60
2022-11-01T01:37:18.498Z,47.40
2022-11-01T01:37:28.483Z,53.10
2022-11-01T01:37:38.593Z,62.00
2022-11-01T01:37:49.240Z,60.50
2022-11-01T01:37:58.625Z,52.60
2022-11-01T01:38:08.478Z,51.00
2022-11-01T01:38:18.507Z,61.90
2022-11-01T01:38:28.491Z,71.10
2022-11-01T01:38:38.471Z,71.80
2022-11-01T01:38:48.487Z,58.00
2022-11-01T01:38:58.500Z,49.60
2022-11-01T01:39:09.250Z,48.60
2022-11-01T01:39:18.468Z,59.40
2022-11-01T01:39:28.471Z,64.60
2022-11-01T01:39:38.519Z,54.10
2022-11-01T01:39:48.469Z,42.00
2022-11-01T01:39:58.537Z,38.90
2022-11-01T01:40:08.486Z,40.30
2022-11-01T01:40:19.233Z,49.30
2022-11-01T01:40:28.470Z,59.80
2022-11-01T01:40:38.472Z,63.20
2022-11-01T01:40:48.520Z,66.20
2022-11-01T01:40:58.474Z,63.00
2022-11-01T01:41:09.235Z,58.70
2022-11-01T01:41:18.473Z,46.70
2022-11-01T01:41:28.466Z,38.40
2022-11-01T01:41:38.479Z,47.30
2022-11-01T01:41:49.240Z,51.20
2022-11-01T01:41:58.473Z,57.90
2022-11-01T01:42:08.468Z,47.20
2022-11-01T01:42:18.474Z,55.20
2022-11-01T01:42:28.472Z,54.30
2022-11-01T01:42:39.238Z,60.00
2022-11-01T01:42:48.458Z,62.90
2022-11-01T01:42:58.464Z,56.90
2022-11-01T01:43:09.239Z,50.50
2022-11-01T01:43:19.201Z,45.80
2022-11-01T01:43:28.458Z,52.80
2022-11-01T01:43:38.564Z,58.50
2022-11-01T01:43:48.458Z,57.30
2022-11-01T01:43:58.451Z,58.30
2022-11-01T01:44:08.465Z,52.60
2022-11-01T01:44:18.461Z,55.50
2022-11-01T01:44:28.465Z,59.50
2022-11-01T01:44:38.470Z,69.20
2022-11-01T01:44:48.461Z,61.00
2022-11-01T01:44:58.451Z,51.40
2022-11-01T01:45:08.523Z,42.40
2022-11-01T01:45:19.243Z,51.90
2022-11-01T01:45:28.455Z,62.10
2022-11-01T01:45:38.445Z,71.00
2022-11-01T01:45:48.472Z,58.70
2022-11-01T01:45:58.458Z,59.40
2022-11-01T01:46:08.441Z,54.50
2022-11-01T01:46:18.448Z,57.60
2022-11-01T01:46:28.447Z,61.90
2022-11-01T01:46:38.443Z,64.00
2022-11-01T01:46:48.440Z,71.60
2022-11-01T01:46:58.441Z,61.50
2022-11-01T01:47:08.440Z,60.70
2022-11-01T01:47:18.495Z,50.70
2022-11-01T01:47:28.522Z,57.40
2022-11-01T01:47:38.441Z,53.30
2022-11-01T01:47:48.476Z,57.80
2022-11-01T01:47:58.536Z,52.00
2022-11-01T01:48:08.436Z,59.90
2022-11-01T01:48:18.437Z,58.90
2022-11-01T01:48:28.435Z,62.90
2022-11-01T01:48:38.444Z,65.70
2022-11-01T01:48:48.501Z,66.80
2022-11-01T01:48:58.424Z,57.10
2022-11-01T01:49:08.440Z,51.40
2022-11-01T01:49:18.434Z,52.60
2022-11-01T01:49:29.237Z,55.70
2022-11-01T01:49:41.608Z,50.40
2022-11-01T01:49:48.495Z,59.10
2022-11-01T01:49:58.454Z,62.50
2022-11-01T01:50:08.445Z,71.90
2022-11-01T01:50:18.481Z,59.70
2022-11-01T01:50:28.437Z,48.80
2022-11-01T01:50:38.460Z,48.40
2022-11-01T01:50:48.416Z,51.90
2022-11-01T01:50:58.481Z,52.40
2022-11-01T01:51:08.429Z,39.10
2022-11-01T01:51:18.418Z,40.50
2022-11-01T01:51:29.250Z,48.60
2022-11-01T01:51:38.493Z,66.70
2022-11-01T01:51:48.418Z,64.30
2022-11-01T01:51:58.426Z,67.10
2022-11-01T01:52:08.412Z,56.50
2022-11-01T01:52:18.414Z,56.10
2022-11-01T01:52:28.425Z,57.40
2022-11-01T01:52:38.419Z,62.60
2022-11-01T01:52:48.423Z,72.20
2022-11-01T01:52:58.616Z,66.90
2022-11-01T01:53:08.422Z,66.20
2022-11-01T01:53:18.412Z,60.20
2022-11-01T01:53:28.425Z,66.40
2022-11-01T01:53:39.245Z,59.00
2022-11-01T01:53:48.424Z,58.20
2022-11-01T01:53:58.488Z,61.70
2022-11-01T01:54:08.404Z,70.90
2022-11-01T01:54:18.413Z,65.80
2022-11-01T01:54:28.402Z,54.10
2022-11-01T01:54:38.404Z,40.40
2022-11-01T01:54:48.417Z,55.80
2022-11-01T01:54:58.405Z,54.20
2022-11-01T01:55:08.402Z,63.00
2022-11-01T01:55:18.416Z,43.70
2022-11-01T01:55:28.820Z,45.40
2022-11-01T01:55:38.443Z,52.40
2022-11-01T01:55:48.412Z,61.40
2022-11-01T01:55:58.409Z,65.00
2022-11-01T01:56:08.402Z,54.90
2022-11-01T01:56:18.429Z,59.10
2022-11-01T01:56:28.410Z,65.30
2022-11-01T01:56:38.409Z,72.40
2022-11-01T01:56:48.411Z,66.40
2022-11-01T01:56:58.406Z,63.20
2022-11-01T01:57:08.403Z,59.50
2022-11-01T01:57:19.348Z,59.00
2022-11-01T01:57:28.406Z,54.90
2022-11-01T01:57:39.241Z,57.60
2022-11-01T01:57:48.446Z,53.20
2022-11-01T01:57:58.392Z,57.10
2022-11-01T01:58:08.456Z,47.20
2022-11-01T01:58:18.389Z,53.20
2022-11-01T01:58:28.509Z,50.30
2022-11-01T01:58:38.388Z,60.40
2022-11-01T01:58:48.393Z,64.30
2022-11-01T01:58:58.399Z,61.90
2022-11-01T01:59:09.246Z,60.90
2022-11-01T01:59:18.397Z,59.80
2022-11-01T01:59:28.385Z,67.90
2022-11-01T01:59:38.390Z,62.50
2022-11-01T01:59:48.427Z,56.20
2022-11-01T01:59:58.381Z,46.20
2022-11-01T02:00:08.411Z,57.30
2022-11-01T02:00:18.380Z,62.20
2022-11-01T02:00:28.390Z,66.50
2022-11-01T02:00:38.430Z,61.40
2022-11-01T02:00:48.417Z,60.50
2022-11-01T02:00:58.495Z,62.80
2022-11-01T02:01:08.461Z,69.10
2022-11-01T02:01:18.505Z,65.60
2022-11-01T02:01:28.475Z,64.10
2022-11-01T02:01:38.511Z,69.20
2022-11-01T02:01:48.458Z,76.70
2022-11-01T02:01:58.687Z,85.60
2022-11-01T02:02:08.415Z,75.70
2022-11-01T02:02:18.537Z,80.30
2022-11-01T02:02:28.381Z,68.20
2022-11-01T02:02:38.378Z,68.40
2022-11-01T02:02:48.372Z,60.50
2022-11-01T02:02:58.656Z,65.60
2022-11-01T02:03:08.381Z,67.80
2022-11-01T02:03:18.379Z,68.10
2022-11-01T02:03:28.461Z,79.20
2022-11-01T02:03:38.366Z,73.60
2022-11-01T02:03:49.322Z,66.90
2022-11-01T02:03:59.295Z,59.60
2022-11-01T02:04:08.368Z,61.60
2022-11-01T02:04:18.365Z,70.60
2022-11-01T02:04:28.358Z,69.50
2022-11-01T02:04:38.363Z,67.30
2022-11-01T02:04:48.357Z,64.30
2022-11-01T02:04:58.362Z,58.50
2022-11-01T02:05:08.476Z,61.90
2022-11-01T02:05:18.379Z,61.50
2022-11-01T02:05:28.356Z,57.60
2022-11-01T02:05:38.376Z,55.90
2022-11-01T02:05:48.395Z,61.70
2022-11-01T02:05:58.374Z,69.60
2022-11-01T02:06:08.510Z,63.80
2022-11-01T02:06:18.414Z,56.00
2022-11-01T02:06:28.351Z,52.30
2022-11-01T02:06:38.364Z,52.00
2022-11-01T02:06:48.363Z,50.30
2022-11-01T02:06:58.354Z,56.40
2022-11-01T02:07:08.366Z,58.50
2022-11-01T02:07:18.348Z,70.60
2022-11-01T02:07:28.347Z,75.10
2022-11-01T02:07:38.357Z,72.40
2022-11-01T02:07:48.346Z,59.20
2022-11-01T02:08:01.699Z,52.70
2022-11-01T02:08:09.237Z,56.00
2022-11-01T02:08:18.348Z,56.10
2022-11-01T02:08:28.357Z,61.50
2022-11-01T02:08:38.358Z,62.90
2022-11-01T02:08:48.356Z,66.20
2022-11-01T02:08:58.345Z,66.80